sensor_id;sensor_type;location;lat;lon;timestamp;temperature;humidity
2497;DHT22;1259;48.306;14.374;2023-02-12T00:01:23;2.70;99.90
2497;DHT22;1259;48.306;14.374;2023-02-12T00:03:50;2.60;99.90
2497;DHT22;1259;48.306;14.374;2023-02-12T00:06:18;2.60;99.90
2497;DHT22;1259;48.306;14.374;2023-02-12T00:08:47;2.60;99.90
2497;DHT22;1259;48.306;14.374;2023-02-12T00:11:15;2.60;99.90
2497;DHT22;1259;48.306;14.374;2023-02-12T00:13:42;2.60;99.90
2497;DHT22;1259;48.306;14.374;2023-02-12T00:16:10;2.60;99.90
2497;DHT22;1259;48.306;14.374;2023-02-12T00:18:37;2.60;99.90
2497;DHT22;1259;48.306;14.374;2023-02-12T00:21:04;2.60;99.90
2497;DHT22;1259;48.306;14.374;2023-02-12T00:23:34;2.60;99.90
2497;DHT22;1259;48.306;14.374;2023-02-12T00:26:03;2.60;99.90
2497;DHT22;1259;48.306;14.374;2023-02-12T00:28:30;2.60;99.90
2497;DHT22;1259;48.306;14.374;2023-02-12T00:30:57;2.60;99.90
2497;DHT22;1259;48.306;14.374;2023-02-12T00:33:24;2.60;99.90
2497;DHT22;1259;48.306;14.374;2023-02-12T00:35:56;2.60;99.90
2497;DHT22;1259;48.306;14.374;2023-02-12T00:38:23;2.60;99.90
2497;DHT22;1259;48.306;14.374;2023-02-12T00:40:51;2.60;99.90
2497;DHT22;1259;48.306;14.374;2023-02-12T00:43:18;2.60;99.90
2497;DHT22;1259;48.306;14.374;2023-02-12T00:45:45;2.60;99.90
2497;DHT22;1259;48.306;14.374;2023-02-12T00:48:12;2.50;99.90
2497;DHT22;1259;48.306;14.374;2023-02-12T00:50:38;2.50;99.90
2497;DHT22;1259;48.306;14.374;2023-02-12T00:53:06;2.50;99.90
2497;DHT22;1259;48.306;14.374;2023-02-12T00:55:33;2.50;99.90
2497;DHT22;1259;48.306;14.374;2023-02-12T00:58:01;2.40;99.90
2497;DHT22;1259;48.306;14.374;2023-02-12T01:00:28;2.40;99.90
2497;DHT22;1259;48.306;14.374;2023-02-12T01:02:55;2.40;99.90
2497;DHT22;1259;48.306;14.374;2023-02-12T01:05:21;2.40;99.90
2497;DHT22;1259;48.306;14.374;2023-02-12T01:07:48;2.40;99.90
2497;DHT22;1259;48.306;14.374;2023-02-12T01:10:15;2.40;99.90
2497;DHT22;1259;48.306;14.374;2023-02-12T01:12:42;2.40;99.90
2497;DHT22;1259;48.306;14.374;2023-02-12T01:15:10;2.30;99.90
2497;DHT22;1259;48.306;14.374;2023-02-12T01:17:37;2.30;99.90
2497;DHT22;1259;48.306;14.374;2023-02-12T01:20:04;2.30;99.90
2497;DHT22;1259;48.306;14.374;2023-02-12T01:22:32;2.30;99.90
2497;DHT22;1259;48.306;14.374;2023-02-12T01:24:59;2.20;99.90
2497;DHT22;1259;48.306;14.374;2023-02-12T01:27:26;2.20;99.90
2497;DHT22;1259;48.306;14.374;2023-02-12T01:29:53;2.20;99.90
2497;DHT22;1259;48.306;14.374;2023-02-12T01:32:21;2.30;99.90
2497;DHT22;1259;48.306;14.374;2023-02-12T01:34:47;2.30;99.90
2497;DHT22;1259;48.306;14.374;2023-02-12T01:37:14;2.30;99.90
2497;DHT22;1259;48.306;14.374;2023-02-12T01:39:41;2.30;99.90
2497;DHT22;1259;48.306;14.374;2023-02-12T01:42:09;2.30;99.90
2497;DHT22;1259;48.306;14.374;2023-02-12T01:44:38;2.30;99.90
2497;DHT22;1259;48.306;14.374;2023-02-12T01:47:05;2.30;99.90
2497;DHT22;1259;48.306;14.374;2023-02-12T01:49:35;2.30;99.90
2497;DHT22;1259;48.306;14.374;2023-02-12T01:52:04;2.20;99.90
2497;DHT22;1259;48.306;14.374;2023-02-12T01:54:31;2.20;99.90
2497;DHT22;1259;48.306;14.374;2023-02-12T01:56:59;2.20;99.90
2497;DHT22;1259;48.306;14.374;2023-02-12T01:59:26;2.20;99.90
2497;DHT22;1259;48.306;14.374;2023-02-12T02:01:53;2.30;99.90
2497;DHT22;1259;48.306;14.374;2023-02-12T02:04:20;2.20;99.90
2497;DHT22;1259;48.306;14.374;2023-02-12T02:06:51;2.20;99.90
2497;DHT22;1259;48.306;14.374;2023-02-12T02:09:19;2.20;99.90
2497;DHT22;1259;48.306;14.374;2023-02-12T02:11:46;2.20;99.90
2497;DHT22;1259;48.306;14.374;2023-02-12T02:14:30;2.20;99.90
2497;DHT22;1259;48.306;14.374;2023-02-12T02:17:02;2.20;99.90
2497;DHT22;1259;48.306;14.374;2023-02-12T02:19:34;2.20;99.90
2497;DHT22;1259;48.306;14.374;2023-02-12T02:22:13;2.20;99.90
2497;DHT22;1259;48.306;14.374;2023-02-12T02:24:52;2.20;99.90
2497;DHT22;1259;48.306;14.374;2023-02-12T02:27:26;2.20;99.90
2497;DHT22;1259;48.306;14.374;2023-02-12T02:32:42;2.20;99.90
2497;DHT22;1259;48.306;14.374;2023-02-12T02:35:12;2.20;99.90
2497;DHT22;1259;48.306;14.374;2023-02-12T02:37:42;2.20;99.90
2497;DHT22;1259;48.306;14.374;2023-02-12T02:40:12;2.20;99.90
2497;DHT22;1259;48.306;14.374;2023-02-12T02:42:40;2.20;99.90
2497;DHT22;1259;48.306;14.374;2023-02-12T02:45:10;2.10;99.90
2497;DHT22;1259;48.306;14.374;2023-02-12T02:47:38;2.10;99.90
2497;DHT22;1259;48.306;14.374;2023-02-12T02:50:09;2.10;99.90
2497;DHT22;1259;48.306;14.374;2023-02-12T02:52:38;2.10;99.90
2497;DHT22;1259;48.306;14.374;2023-02-12T02:55:06;2.10;99.90
2497;DHT22;1259;48.306;14.374;2023-02-12T02:57:35;2.10;99.90
2497;DHT22;1259;48.306;14.374;2023-02-12T03:00:05;2.00;99.90
2497;DHT22;1259;48.306;14.374;2023-02-12T03:02:33;2.00;99.90
2497;DHT22;1259;48.306;14.374;2023-02-12T03:05:03;2.00;99.90
2497;DHT22;1259;48.306;14.374;2023-02-12T03:07:33;2.00;99.90
2497;DHT22;1259;48.306;14.374;2023-02-12T03:10:03;2.10;99.90
2497;DHT22;1259;48.306;14.374;2023-02-12T03:12:32;2.00;99.90
2497;DHT22;1259;48.306;14.374;2023-02-12T03:15:00;2.10;99.90
2497;DHT22;1259;48.306;14.374;2023-02-12T03:17:29;2.00;99.90
2497;DHT22;1259;48.306;14.374;2023-02-12T03:19:57;2.10;99.90
2497;DHT22;1259;48.306;14.374;2023-02-12T03:22:27;2.10;99.90
2497;DHT22;1259;48.306;14.374;2023-02-12T03:24:56;2.10;99.90
2497;DHT22;1259;48.306;14.374;2023-02-12T03:27:26;2.10;99.90
2497;DHT22;1259;48.306;14.374;2023-02-12T03:29:54;2.10;99.90
2497;DHT22;1259;48.306;14.374;2023-02-12T03:32:25;2.10;99.90
2497;DHT22;1259;48.306;14.374;2023-02-12T03:34:54;2.10;99.90
2497;DHT22;1259;48.306;14.374;2023-02-12T03:37:24;2.10;99.90
2497;DHT22;1259;48.306;14.374;2023-02-12T03:39:53;2.10;99.90
2497;DHT22;1259;48.306;14.374;2023-02-12T03:42:26;2.10;99.90
2497;DHT22;1259;48.306;14.374;2023-02-12T03:44:55;2.10;99.90
2497;DHT22;1259;48.306;14.374;2023-02-12T03:47:23;2.10;99.90
2497;DHT22;1259;48.306;14.374;2023-02-12T03:49:52;2.10;99.90
2497;DHT22;1259;48.306;14.374;2023-02-12T03:52:21;2.10;99.90
2497;DHT22;1259;48.306;14.374;2023-02-12T03:54:48;2.10;99.90
2497;DHT22;1259;48.306;14.374;2023-02-12T03:57:16;2.10;99.90
2497;DHT22;1259;48.306;14.374;2023-02-12T03:59:45;2.10;99.90
2497;DHT22;1259;48.306;14.374;2023-02-12T04:02:11;2.10;99.90
2497;DHT22;1259;48.306;14.374;2023-02-12T04:04:39;2.10;99.90
2497;DHT22;1259;48.306;14.374;2023-02-12T04:07:06;2.10;99.90
2497;DHT22;1259;48.306;14.374;2023-02-12T04:09:32;2.10;99.90
2497;DHT22;1259;48.306;14.374;2023-02-12T04:12:13;2.10;99.90
2497;DHT22;1259;48.306;14.374;2023-02-12T04:14:43;2.10;99.90
2497;DHT22;1259;48.306;14.374;2023-02-12T04:17:13;2.10;99.90
2497;DHT22;1259;48.306;14.374;2023-02-12T04:19:49;2.10;99.90
2497;DHT22;1259;48.306;14.374;2023-02-12T04:22:22;2.10;99.90
2497;DHT22;1259;48.306;14.374;2023-02-12T04:24:56;2.10;99.90
2497;DHT22;1259;48.306;14.374;2023-02-12T04:27:24;2.10;99.90
2497;DHT22;1259;48.306;14.374;2023-02-12T04:29:52;2.00;99.90
2497;DHT22;1259;48.306;14.374;2023-02-12T04:32:23;2.00;99.90
2497;DHT22;1259;48.306;14.374;2023-02-12T04:34:51;2.00;99.90
2497;DHT22;1259;48.306;14.374;2023-02-12T04:37:21;2.00;99.90
2497;DHT22;1259;48.306;14.374;2023-02-12T04:39:49;2.00;99.90
2497;DHT22;1259;48.306;14.374;2023-02-12T04:42:17;2.00;99.90
2497;DHT22;1259;48.306;14.374;2023-02-12T04:44:44;2.00;99.90
2497;DHT22;1259;48.306;14.374;2023-02-12T04:47:11;1.90;99.90
2497;DHT22;1259;48.306;14.374;2023-02-12T04:49:39;1.90;99.90
2497;DHT22;1259;48.306;14.374;2023-02-12T04:52:06;2.00;99.90
2497;DHT22;1259;48.306;14.374;2023-02-12T04:54:33;2.00;99.90
2497;DHT22;1259;48.306;14.374;2023-02-12T04:57:00;2.00;99.90
2497;DHT22;1259;48.306;14.374;2023-02-12T04:59:26;1.90;99.90
2497;DHT22;1259;48.306;14.374;2023-02-12T05:01:53;1.90;99.90
2497;DHT22;1259;48.306;14.374;2023-02-12T05:04:20;1.90;99.90
2497;DHT22;1259;48.306;14.374;2023-02-12T05:06:48;1.90;99.90
2497;DHT22;1259;48.306;14.374;2023-02-12T05:09:15;1.90;99.90
2497;DHT22;1259;48.306;14.374;2023-02-12T05:11:42;1.90;99.90
2497;DHT22;1259;48.306;14.374;2023-02-12T05:14:09;1.90;99.90
2497;DHT22;1259;48.306;14.374;2023-02-12T05:16:35;1.90;99.90
2497;DHT22;1259;48.306;14.374;2023-02-12T05:19:02;1.90;99.90
2497;DHT22;1259;48.306;14.374;2023-02-12T05:21:29;1.90;99.90
2497;DHT22;1259;48.306;14.374;2023-02-12T05:23:57;1.90;99.90
2497;DHT22;1259;48.306;14.374;2023-02-12T05:26:24;1.90;99.90
2497;DHT22;1259;48.306;14.374;2023-02-12T05:28:50;1.90;99.90
2497;DHT22;1259;48.306;14.374;2023-02-12T05:31:17;1.90;99.90
2497;DHT22;1259;48.306;14.374;2023-02-12T05:33:45;2.00;99.90
2497;DHT22;1259;48.306;14.374;2023-02-12T05:36:13;1.90;99.90
2497;DHT22;1259;48.306;14.374;2023-02-12T05:38:40;2.00;99.90
2497;DHT22;1259;48.306;14.374;2023-02-12T05:41:09;2.00;99.90
2497;DHT22;1259;48.306;14.374;2023-02-12T05:43:36;2.00;99.90
2497;DHT22;1259;48.306;14.374;2023-02-12T05:46:03;2.00;99.90
2497;DHT22;1259;48.306;14.374;2023-02-12T05:48:30;2.10;99.90
2497;DHT22;1259;48.306;14.374;2023-02-12T05:51:00;2.10;99.90
2497;DHT22;1259;48.306;14.374;2023-02-12T05:53:27;2.10;99.90
2497;DHT22;1259;48.306;14.374;2023-02-12T05:55:54;2.10;99.90
2497;DHT22;1259;48.306;14.374;2023-02-12T05:58:22;2.10;99.90
2497;DHT22;1259;48.306;14.374;2023-02-12T06:00:48;2.10;99.90
2497;DHT22;1259;48.306;14.374;2023-02-12T06:03:15;2.20;99.90
2497;DHT22;1259;48.306;14.374;2023-02-12T06:05:42;2.20;99.90
2497;DHT22;1259;48.306;14.374;2023-02-12T06:08:08;2.30;99.90
2497;DHT22;1259;48.306;14.374;2023-02-12T06:10:35;2.20;99.90
2497;DHT22;1259;48.306;14.374;2023-02-12T06:13:02;2.20;99.90
2497;DHT22;1259;48.306;14.374;2023-02-12T06:15:30;2.20;99.90
2497;DHT22;1259;48.306;14.374;2023-02-12T06:17:57;2.20;99.90
2497;DHT22;1259;48.306;14.374;2023-02-12T06:20:23;2.20;99.90
2497;DHT22;1259;48.306;14.374;2023-02-12T06:22:50;2.10;99.90
2497;DHT22;1259;48.306;14.374;2023-02-12T06:25:17;2.10;99.90
2497;DHT22;1259;48.306;14.374;2023-02-12T06:27:44;2.10;99.90
2497;DHT22;1259;48.306;14.374;2023-02-12T06:30:11;2.00;99.90
2497;DHT22;1259;48.306;14.374;2023-02-12T06:32:39;2.00;99.90
2497;DHT22;1259;48.306;14.374;2023-02-12T06:35:06;2.00;99.90
2497;DHT22;1259;48.306;14.374;2023-02-12T06:37:32;2.00;99.90
2497;DHT22;1259;48.306;14.374;2023-02-12T06:40:01;2.00;99.90
2497;DHT22;1259;48.306;14.374;2023-02-12T06:42:28;2.00;99.90
2497;DHT22;1259;48.306;14.374;2023-02-12T06:44:54;2.00;99.90
2497;DHT22;1259;48.306;14.374;2023-02-12T06:47:21;2.00;99.90
2497;DHT22;1259;48.306;14.374;2023-02-12T06:49:49;2.00;99.90
2497;DHT22;1259;48.306;14.374;2023-02-12T06:52:15;2.10;99.90
2497;DHT22;1259;48.306;14.374;2023-02-12T06:54:42;2.10;99.90
2497;DHT22;1259;48.306;14.374;2023-02-12T06:57:09;2.20;99.90
2497;DHT22;1259;48.306;14.374;2023-02-12T06:59:35;2.30;99.90
2497;DHT22;1259;48.306;14.374;2023-02-12T07:02:02;2.30;99.90
2497;DHT22;1259;48.306;14.374;2023-02-12T07:04:29;2.30;99.90
2497;DHT22;1259;48.306;14.374;2023-02-12T07:06:57;2.20;99.90
2497;DHT22;1259;48.306;14.374;2023-02-12T07:09:23;2.20;99.90
2497;DHT22;1259;48.306;14.374;2023-02-12T07:11:51;2.20;99.90
2497;DHT22;1259;48.306;14.374;2023-02-12T07:14:18;2.20;99.90
2497;DHT22;1259;48.306;14.374;2023-02-12T07:16:45;2.20;99.90
2497;DHT22;1259;48.306;14.374;2023-02-12T07:19:12;2.20;99.90
2497;DHT22;1259;48.306;14.374;2023-02-12T07:21:38;2.20;99.90
2497;DHT22;1259;48.306;14.374;2023-02-12T07:24:08;2.20;99.90
2497;DHT22;1259;48.306;14.374;2023-02-12T07:26:36;2.20;99.90
2497;DHT22;1259;48.306;14.374;2023-02-12T07:29:02;2.10;99.90
2497;DHT22;1259;48.306;14.374;2023-02-12T07:31:29;2.10;99.90
2497;DHT22;1259;48.306;14.374;2023-02-12T07:33:57;2.10;99.90
2497;DHT22;1259;48.306;14.374;2023-02-12T07:36:24;2.10;99.90
2497;DHT22;1259;48.306;14.374;2023-02-12T07:38:52;2.10;99.90
2497;DHT22;1259;48.306;14.374;2023-02-12T07:41:20;2.20;99.90
2497;DHT22;1259;48.306;14.374;2023-02-12T07:43:48;2.20;99.90
2497;DHT22;1259;48.306;14.374;2023-02-12T07:46:16;2.30;99.90
2497;DHT22;1259;48.306;14.374;2023-02-12T07:48:43;2.30;99.90
2497;DHT22;1259;48.306;14.374;2023-02-12T07:51:10;2.30;99.90
2497;DHT22;1259;48.306;14.374;2023-02-12T07:53:37;2.30;99.90
2497;DHT22;1259;48.306;14.374;2023-02-12T07:56:05;2.30;99.90
2497;DHT22;1259;48.306;14.374;2023-02-12T07:58:33;2.30;99.90
2497;DHT22;1259;48.306;14.374;2023-02-12T08:01:09;2.30;99.90
2497;DHT22;1259;48.306;14.374;2023-02-12T08:03:36;2.30;99.90
2497;DHT22;1259;48.306;14.374;2023-02-12T08:06:05;2.30;99.90
2497;DHT22;1259;48.306;14.374;2023-02-12T08:08:32;2.30;99.90
2497;DHT22;1259;48.306;14.374;2023-02-12T08:10:59;2.40;99.90
2497;DHT22;1259;48.306;14.374;2023-02-12T08:13:25;2.40;99.90
2497;DHT22;1259;48.306;14.374;2023-02-12T08:15:59;2.40;99.90
2497;DHT22;1259;48.306;14.374;2023-02-12T08:18:26;2.50;99.90
2497;DHT22;1259;48.306;14.374;2023-02-12T08:20:52;2.50;99.90
2497;DHT22;1259;48.306;14.374;2023-02-12T08:23:19;2.60;99.90
2497;DHT22;1259;48.306;14.374;2023-02-12T08:25:46;2.60;99.90
2497;DHT22;1259;48.306;14.374;2023-02-12T08:28:12;2.60;99.90
2497;DHT22;1259;48.306;14.374;2023-02-12T08:30:39;2.70;99.90
2497;DHT22;1259;48.306;14.374;2023-02-12T08:33:07;2.80;99.90
2497;DHT22;1259;48.306;14.374;2023-02-12T08:35:34;2.80;99.90
2497;DHT22;1259;48.306;14.374;2023-02-12T08:38:00;2.80;99.90
2497;DHT22;1259;48.306;14.374;2023-02-12T08:40:27;2.90;99.90
2497;DHT22;1259;48.306;14.374;2023-02-12T08:42:54;2.90;99.90
2497;DHT22;1259;48.306;14.374;2023-02-12T08:45:20;2.90;99.90
2497;DHT22;1259;48.306;14.374;2023-02-12T08:47:47;3.00;99.90
2497;DHT22;1259;48.306;14.374;2023-02-12T08:50:15;3.10;99.90
2497;DHT22;1259;48.306;14.374;2023-02-12T08:52:42;3.10;99.90
2497;DHT22;1259;48.306;14.374;2023-02-12T08:55:08;3.10;99.90
2497;DHT22;1259;48.306;14.374;2023-02-12T08:57:35;3.00;99.90
2497;DHT22;1259;48.306;14.374;2023-02-12T09:00:02;3.10;99.90
2497;DHT22;1259;48.306;14.374;2023-02-12T09:02:29;3.10;99.90
2497;DHT22;1259;48.306;14.374;2023-02-12T09:04:55;3.20;99.90
2497;DHT22;1259;48.306;14.374;2023-02-12T09:07:24;3.20;99.90
2497;DHT22;1259;48.306;14.374;2023-02-12T09:09:50;3.30;99.90
2497;DHT22;1259;48.306;14.374;2023-02-12T09:12:17;3.30;99.90
2497;DHT22;1259;48.306;14.374;2023-02-12T09:14:44;3.30;99.90
2497;DHT22;1259;48.306;14.374;2023-02-12T09:17:10;3.40;99.90
2497;DHT22;1259;48.306;14.374;2023-02-12T09:19:37;3.50;99.90
2497;DHT22;1259;48.306;14.374;2023-02-12T09:22:05;3.50;99.90
2497;DHT22;1259;48.306;14.374;2023-02-12T09:24:33;3.50;99.90
2497;DHT22;1259;48.306;14.374;2023-02-12T09:26:59;3.50;99.90
2497;DHT22;1259;48.306;14.374;2023-02-12T09:29:26;3.60;99.90
2497;DHT22;1259;48.306;14.374;2023-02-12T09:31:53;3.70;99.90
2497;DHT22;1259;48.306;14.374;2023-02-12T09:34:19;3.70;99.90
2497;DHT22;1259;48.306;14.374;2023-02-12T09:36:46;3.90;99.90
2497;DHT22;1259;48.306;14.374;2023-02-12T09:39:12;3.90;99.90
2497;DHT22;1259;48.306;14.374;2023-02-12T09:44:24;4.00;99.90
2497;DHT22;1259;48.306;14.374;2023-02-12T09:46:54;4.00;99.90
2497;DHT22;1259;48.306;14.374;2023-02-12T09:49:37;4.00;99.90
2497;DHT22;1259;48.306;14.374;2023-02-12T09:52:08;4.00;99.90
2497;DHT22;1259;48.306;14.374;2023-02-12T09:54:38;4.00;99.90
2497;DHT22;1259;48.306;14.374;2023-02-12T09:57:06;4.10;99.90
2497;DHT22;1259;48.306;14.374;2023-02-12T09:59:39;4.20;99.90
2497;DHT22;1259;48.306;14.374;2023-02-12T10:02:09;4.10;99.90
2497;DHT22;1259;48.306;14.374;2023-02-12T10:04:37;4.10;99.90
2497;DHT22;1259;48.306;14.374;2023-02-12T10:07:06;4.10;99.90
2497;DHT22;1259;48.306;14.374;2023-02-12T10:09:40;4.10;99.90
2497;DHT22;1259;48.306;14.374;2023-02-12T10:12:11;4.20;99.90
2497;DHT22;1259;48.306;14.374;2023-02-12T10:17:32;4.30;99.90
2497;DHT22;1259;48.306;14.374;2023-02-12T10:20:10;4.40;99.90
2497;DHT22;1259;48.306;14.374;2023-02-12T10:22:42;4.40;99.90
2497;DHT22;1259;48.306;14.374;2023-02-12T10:25:16;4.50;99.90
2497;DHT22;1259;48.306;14.374;2023-02-12T10:27:45;4.50;99.90
2497;DHT22;1259;48.306;14.374;2023-02-12T10:30:16;4.50;99.90
2497;DHT22;1259;48.306;14.374;2023-02-12T10:32:45;4.60;99.90
2497;DHT22;1259;48.306;14.374;2023-02-12T10:35:13;4.60;99.90
2497;DHT22;1259;48.306;14.374;2023-02-12T10:37:42;4.70;99.90
2497;DHT22;1259;48.306;14.374;2023-02-12T10:40:13;4.70;99.90
2497;DHT22;1259;48.306;14.374;2023-02-12T10:42:42;4.80;99.90
2497;DHT22;1259;48.306;14.374;2023-02-12T10:45:11;4.70;99.90
2497;DHT22;1259;48.306;14.374;2023-02-12T10:47:39;4.90;99.90
2497;DHT22;1259;48.306;14.374;2023-02-12T10:50:12;4.90;99.90
2497;DHT22;1259;48.306;14.374;2023-02-12T10:52:43;5.00;99.90
2497;DHT22;1259;48.306;14.374;2023-02-12T10:55:22;5.10;99.90
2497;DHT22;1259;48.306;14.374;2023-02-12T10:57:49;5.10;99.90
2497;DHT22;1259;48.306;14.374;2023-02-12T11:00:21;5.10;99.90
2497;DHT22;1259;48.306;14.374;2023-02-12T11:02:58;5.10;99.90
2497;DHT22;1259;48.306;14.374;2023-02-12T11:05:27;5.00;99.90
2497;DHT22;1259;48.306;14.374;2023-02-12T11:07:55;5.10;99.90
2497;DHT22;1259;48.306;14.374;2023-02-12T11:10:25;5.10;99.90
2497;DHT22;1259;48.306;14.374;2023-02-12T11:12:52;5.20;99.90
2497;DHT22;1259;48.306;14.374;2023-02-12T11:15:20;5.30;99.90
2497;DHT22;1259;48.306;14.374;2023-02-12T11:17:53;5.40;99.90
2497;DHT22;1259;48.306;14.374;2023-02-12T11:20:21;5.40;99.90
2497;DHT22;1259;48.306;14.374;2023-02-12T11:22:54;5.40;99.90
2497;DHT22;1259;48.306;14.374;2023-02-12T11:25:21;5.50;99.90
2497;DHT22;1259;48.306;14.374;2023-02-12T11:27:58;5.50;99.90
2497;DHT22;1259;48.306;14.374;2023-02-12T11:30:25;5.50;99.90
2497;DHT22;1259;48.306;14.374;2023-02-12T11:32:51;5.70;99.90
2497;DHT22;1259;48.306;14.374;2023-02-12T11:35:19;5.60;99.90
2497;DHT22;1259;48.306;14.374;2023-02-12T11:37:50;5.70;99.90
2497;DHT22;1259;48.306;14.374;2023-02-12T11:40:21;5.70;99.90
2497;DHT22;1259;48.306;14.374;2023-02-12T11:42:49;5.80;99.90
2497;DHT22;1259;48.306;14.374;2023-02-12T11:45:18;5.90;99.90
2497;DHT22;1259;48.306;14.374;2023-02-12T11:47:45;5.80;99.90
2497;DHT22;1259;48.306;14.374;2023-02-12T11:50:17;5.80;99.90
2497;DHT22;1259;48.306;14.374;2023-02-12T11:52:47;5.90;99.90
2497;DHT22;1259;48.306;14.374;2023-02-12T11:55:18;5.90;99.90
2497;DHT22;1259;48.306;14.374;2023-02-12T11:57:48;6.00;99.90
2497;DHT22;1259;48.306;14.374;2023-02-12T12:00:15;6.10;99.90
2497;DHT22;1259;48.306;14.374;2023-02-12T12:02:43;6.10;99.90
2497;DHT22;1259;48.306;14.374;2023-02-12T12:05:12;5.90;99.90
2497;DHT22;1259;48.306;14.374;2023-02-12T12:07:42;6.00;99.90
2497;DHT22;1259;48.306;14.374;2023-02-12T12:10:11;5.90;99.90
2497;DHT22;1259;48.306;14.374;2023-02-12T12:12:40;5.70;99.90
2497;DHT22;1259;48.306;14.374;2023-02-12T12:15:14;5.90;99.90
2497;DHT22;1259;48.306;14.374;2023-02-12T12:18:02;5.90;99.90
2497;DHT22;1259;48.306;14.374;2023-02-12T12:20:51;5.90;99.90
2497;DHT22;1259;48.306;14.374;2023-02-12T12:23:21;5.90;99.90
2497;DHT22;1259;48.306;14.374;2023-02-12T12:25:50;5.80;99.90
2497;DHT22;1259;48.306;14.374;2023-02-12T12:28:28;5.90;99.90
2497;DHT22;1259;48.306;14.374;2023-02-12T12:30:58;6.00;99.90
2497;DHT22;1259;48.306;14.374;2023-02-12T12:33:30;6.20;99.90
2497;DHT22;1259;48.306;14.374;2023-02-12T12:36:01;6.10;99.90
2497;DHT22;1259;48.306;14.374;2023-02-12T12:38:32;6.20;99.90
2497;DHT22;1259;48.306;14.374;2023-02-12T12:41:05;6.20;99.90
2497;DHT22;1259;48.306;14.374;2023-02-12T12:43:39;6.20;99.90
2497;DHT22;1259;48.306;14.374;2023-02-12T12:46:17;6.20;99.90
2497;DHT22;1259;48.306;14.374;2023-02-12T12:48:54;6.10;99.90
2497;DHT22;1259;48.306;14.374;2023-02-12T12:51:28;6.10;99.90
2497;DHT22;1259;48.306;14.374;2023-02-12T12:54:01;6.10;99.90
2497;DHT22;1259;48.306;14.374;2023-02-12T12:56:35;6.10;99.90
2497;DHT22;1259;48.306;14.374;2023-02-12T13:01:51;6.00;99.90
2497;DHT22;1259;48.306;14.374;2023-02-12T13:04:34;6.10;99.90
2497;DHT22;1259;48.306;14.374;2023-02-12T13:07:09;6.10;99.90
2497;DHT22;1259;48.306;14.374;2023-02-12T13:09:52;6.00;99.90
2497;DHT22;1259;48.306;14.374;2023-02-12T13:12:41;6.00;99.90
2497;DHT22;1259;48.306;14.374;2023-02-12T13:15:14;6.00;99.90
2497;DHT22;1259;48.306;14.374;2023-02-12T13:17:45;6.10;99.90
2497;DHT22;1259;48.306;14.374;2023-02-12T13:20:16;6.10;99.90
2497;DHT22;1259;48.306;14.374;2023-02-12T13:22:47;6.10;99.90
2497;DHT22;1259;48.306;14.374;2023-02-12T13:25:17;6.10;99.90
2497;DHT22;1259;48.306;14.374;2023-02-12T13:27:46;6.10;99.90
2497;DHT22;1259;48.306;14.374;2023-02-12T13:30:17;6.10;99.90
2497;DHT22;1259;48.306;14.374;2023-02-12T13:32:46;6.10;99.90
2497;DHT22;1259;48.306;14.374;2023-02-12T13:35:15;6.10;99.90
2497;DHT22;1259;48.306;14.374;2023-02-12T13:37:43;6.10;99.90
2497;DHT22;1259;48.306;14.374;2023-02-12T13:40:13;6.00;99.90
2497;DHT22;1259;48.306;14.374;2023-02-12T13:42:44;6.00;99.90
2497;DHT22;1259;48.306;14.374;2023-02-12T13:45:24;6.10;99.90
2497;DHT22;1259;48.306;14.374;2023-02-12T13:48:02;6.00;99.90
2497;DHT22;1259;48.306;14.374;2023-02-12T13:50:37;6.00;99.90
2497;DHT22;1259;48.306;14.374;2023-02-12T13:53:07;5.90;99.90
2497;DHT22;1259;48.306;14.374;2023-02-12T13:55:38;5.90;99.90
2497;DHT22;1259;48.306;14.374;2023-02-12T14:00:55;6.00;99.90
2497;DHT22;1259;48.306;14.374;2023-02-12T14:03:23;6.10;99.90
2497;DHT22;1259;48.306;14.374;2023-02-12T14:08:34;6.20;99.90
2497;DHT22;1259;48.306;14.374;2023-02-12T14:11:02;6.30;99.90
2497;DHT22;1259;48.306;14.374;2023-02-12T14:13:29;6.30;99.90
2497;DHT22;1259;48.306;14.374;2023-02-12T14:15:59;6.40;99.90
2497;DHT22;1259;48.306;14.374;2023-02-12T14:18:44;6.40;99.90
2497;DHT22;1259;48.306;14.374;2023-02-12T14:26:46;5.90;99.90
2497;DHT22;1259;48.306;14.374;2023-02-12T14:29:14;5.80;99.90
2497;DHT22;1259;48.306;14.374;2023-02-12T14:31:45;5.80;99.90
2497;DHT22;1259;48.306;14.374;2023-02-12T14:39:48;5.70;99.90
2497;DHT22;1259;48.306;14.374;2023-02-12T14:44:59;5.70;99.90
2497;DHT22;1259;48.306;14.374;2023-02-12T14:50:12;5.90;99.90
2497;DHT22;1259;48.306;14.374;2023-02-12T14:52:39;5.90;99.90
2497;DHT22;1259;48.306;14.374;2023-02-12T14:55:18;5.80;99.90
2497;DHT22;1259;48.306;14.374;2023-02-12T14:57:46;5.60;99.90
2497;DHT22;1259;48.306;14.374;2023-02-12T15:00:19;5.60;99.90
2497;DHT22;1259;48.306;14.374;2023-02-12T15:02:47;5.60;99.90
2497;DHT22;1259;48.306;14.374;2023-02-12T15:05:15;5.50;99.90
2497;DHT22;1259;48.306;14.374;2023-02-12T15:07:44;5.50;99.90
2497;DHT22;1259;48.306;14.374;2023-02-12T15:10:14;5.50;99.90
2497;DHT22;1259;48.306;14.374;2023-02-12T15:12:44;5.50;99.90
2497;DHT22;1259;48.306;14.374;2023-02-12T15:15:14;5.60;99.90
2497;DHT22;1259;48.306;14.374;2023-02-12T15:17:47;5.50;99.90
2497;DHT22;1259;48.306;14.374;2023-02-12T15:20:18;5.50;99.90
2497;DHT22;1259;48.306;14.374;2023-02-12T15:22:45;5.50;99.90
2497;DHT22;1259;48.306;14.374;2023-02-12T15:25:19;5.50;99.90
2497;DHT22;1259;48.306;14.374;2023-02-12T15:27:48;5.50;99.90
2497;DHT22;1259;48.306;14.374;2023-02-12T15:30:16;5.50;99.90
2497;DHT22;1259;48.306;14.374;2023-02-12T15:32:44;5.50;99.90
2497;DHT22;1259;48.306;14.374;2023-02-12T15:35:21;5.50;99.90
2497;DHT22;1259;48.306;14.374;2023-02-12T15:37:49;5.50;99.90
2497;DHT22;1259;48.306;14.374;2023-02-12T15:40:16;5.50;99.90
2497;DHT22;1259;48.306;14.374;2023-02-12T15:42:51;5.50;99.90
2497;DHT22;1259;48.306;14.374;2023-02-12T15:45:19;5.60;99.90
2497;DHT22;1259;48.306;14.374;2023-02-12T15:47:54;5.70;99.90
2497;DHT22;1259;48.306;14.374;2023-02-12T15:50:21;5.70;99.90
2497;DHT22;1259;48.306;14.374;2023-02-12T15:52:48;5.80;99.90
2497;DHT22;1259;48.306;14.374;2023-02-12T15:55:16;5.70;99.90
2497;DHT22;1259;48.306;14.374;2023-02-12T15:57:43;5.70;99.90
2497;DHT22;1259;48.306;14.374;2023-02-12T16:00:21;5.70;99.90
2497;DHT22;1259;48.306;14.374;2023-02-12T16:02:51;5.80;99.90
2497;DHT22;1259;48.306;14.374;2023-02-12T16:05:18;5.80;99.90
2497;DHT22;1259;48.306;14.374;2023-02-12T16:07:45;5.80;99.90
2497;DHT22;1259;48.306;14.374;2023-02-12T16:10:13;5.80;99.90
2497;DHT22;1259;48.306;14.374;2023-02-12T16:12:40;5.60;99.90
2497;DHT22;1259;48.306;14.374;2023-02-12T16:15:22;5.40;99.90
2497;DHT22;1259;48.306;14.374;2023-02-12T16:17:50;5.40;99.90
2497;DHT22;1259;48.306;14.374;2023-02-12T16:20:20;5.40;99.90
2497;DHT22;1259;48.306;14.374;2023-02-12T16:22:48;5.40;99.90
2497;DHT22;1259;48.306;14.374;2023-02-12T16:25:16;5.40;99.90
2497;DHT22;1259;48.306;14.374;2023-02-12T16:27:48;5.30;99.90
2497;DHT22;1259;48.306;14.374;2023-02-12T16:30:23;5.20;99.90
2497;DHT22;1259;48.306;14.374;2023-02-12T16:32:52;5.20;99.90
2497;DHT22;1259;48.306;14.374;2023-02-12T16:35:23;5.00;99.90
2497;DHT22;1259;48.306;14.374;2023-02-12T16:37:50;4.90;99.90
2497;DHT22;1259;48.306;14.374;2023-02-12T16:40:28;5.00;99.90
2497;DHT22;1259;48.306;14.374;2023-02-12T16:42:56;5.10;99.90
2497;DHT22;1259;48.306;14.374;2023-02-12T16:45:40;5.10;99.90
2497;DHT22;1259;48.306;14.374;2023-02-12T16:48:11;5.10;99.90